Time;durP1;ratioP1;P1;durP2;ratioP2;P2;SDS_P1;SDS_P2;PMS_P1;PMS_P2;Temp;Humidity;BMP_temperature;BMP_pressure;BME280_temperature;BME280_humidity;BME280_pressure;Samples;Min_cycle;Max_cycle;Signal;HPM_P1;HPM_P2
2021/08/13 00:00:31;;;;;;;;;7.25;7.25;;;;;26.17;47.34;101696.78;5037603;28;51031;-62
2021/08/13 00:02:57;;;;;;;;;9.00;8.00;;;;;26.16;47.52;101697.88;5037467;28;51109;-62
2021/08/13 00:05:22;;;;;;;;;6.50;5.75;;;;;26.17;47.43;101694.03;5037798;28;51161;-62
2021/08/13 00:07:47;;;;;;;;;9.25;6.25;;;;;26.16;47.30;101697.88;5037872;28;51103;-62
2021/08/13 00:10:14;;;;;;;;;8.25;7.50;;;;;26.16;47.20;101701.50;5037364;28;51029;-62
2021/08/13 00:12:39;;;;;;;;;6.25;6.25;;;;;26.15;47.76;101704.50;5037884;28;51509;-61
2021/08/13 00:15:05;;;;;;;;;5.50;4.50;;;;;26.15;47.71;101705.34;5037860;28;51302;-62
2021/08/13 00:17:31;;;;;;;;;6.00;5.00;;;;;26.15;47.22;101707.28;5052998;28;51172;-62
2021/08/13 00:19:56;;;;;;;;;6.75;5.75;;;;;26.14;47.58;101714.75;5036938;28;50868;-62
2021/08/13 00:22:22;;;;;;;;;5.75;5.00;;;;;26.14;47.48;101713.91;5037471;28;51059;-62
2021/08/13 00:24:47;;;;;;;;;6.75;6.75;;;;;26.14;47.53;101708.34;5037642;28;51139;-62
2021/08/13 00:27:13;;;;;;;;;6.75;5.75;;;;;26.13;47.47;101713.06;5037214;28;51224;-62
2021/08/13 00:29:38;;;;;;;;;6.00;5.50;;;;;26.13;47.42;101701.13;5037068;28;52001;-62
2021/08/13 00:32:04;;;;;;;;;5.00;5.00;;;;;26.13;47.70;101706.66;5037275;28;51071;-61
2021/08/13 00:34:29;;;;;;;;;7.00;6.25;;;;;26.13;47.17;101715.00;5036511;28;51102;-61
2021/08/13 00:36:54;;;;;;;;;5.25;5.25;;;;;26.11;47.06;101714.41;5037720;28;51405;-62
2021/08/13 00:39:20;;;;;;;;;6.50;5.25;;;;;26.12;47.22;101716.94;5037038;28;52101;-62
2021/08/13 00:41:45;;;;;;;;;6.50;4.00;;;;;26.12;47.47;101719.72;5037323;28;51087;-62
2021/08/13 00:44:10;;;;;;;;;5.50;5.50;;;;;26.12;47.41;101710.53;5037474;28;51114;-62
2021/08/13 00:46:36;;;;;;;;;4.50;4.00;;;;;26.10;47.21;101707.16;5037320;28;50997;-61
2021/08/13 00:49:01;;;;;;;;;8.25;7.25;;;;;26.11;47.50;101709.69;5036779;28;51107;-62
2021/08/13 00:51:28;;;;;;;;;6.25;6.25;;;;;26.10;47.63;101713.56;5036917;28;50967;-62
2021/08/13 00:53:54;;;;;;;;;5.75;4.50;;;;;26.10;47.45;101705.22;5037382;28;51069;-62
2021/08/13 00:56:20;;;;;;;;;6.50;6.25;;;;;26.10;47.73;101718.25;5037361;28;51368;-62
2021/08/13 00:58:46;;;;;;;;;5.50;5.50;;;;;26.09;47.31;101724.91;5036400;28;51024;-62
2021/08/13 01:01:12;;;;;;;;;5.75;4.25;;;;;26.08;47.25;101726.84;5036781;28;51333;-62
2021/08/13 01:03:39;;;;;;;;;7.25;5.50;;;;;26.09;47.32;101724.91;5036667;28;50962;-62
2021/08/13 01:06:11;;;;;;;;;5.75;5.00;;;;;26.09;47.12;101722.13;5037037;28;51412;-62
2021/08/13 01:08:36;;;;;;;;;5.75;5.25;;;;;26.07;47.55;101719.59;5036242;28;51087;-62
2021/08/13 01:11:12;;;;;;;;;7.25;7.25;;;;;26.08;47.27;101726.00;5037140;28;51112;-62
2021/08/13 01:13:49;;;;;;;;;6.00;5.00;;;;;26.07;47.92;101716.81;5036897;28;51116;-62
2021/08/13 01:16:18;;;;;;;;;5.00;5.00;;;;;26.07;47.32;101718.75;5036800;28;50936;-62
2021/08/13 01:18:54;;;;;;;;;9.00;6.00;;;;;26.07;47.50;101715.97;5036181;28;51087;-62
2021/08/13 01:21:32;;;;;;;;;7.50;7.00;;;;;26.06;47.65;101717.06;5036370;28;51404;-62
2021/08/13 01:24:14;;;;;;;;;6.00;6.00;;;;;26.07;47.72;101722.38;5036775;28;50978;-62
2021/08/13 01:26:47;;;;;;;;;6.00;5.00;;;;;26.05;47.81;101720.91;5036233;28;51086;-62
2021/08/13 01:29:44;;;;;;;;;6.50;5.75;;;;;26.06;47.35;101728.16;5036248;28;52083;-63
2021/08/13 01:32:09;;;;;;;;;8.50;6.75;;;;;26.05;47.39;101720.91;5036030;28;51099;-62
2021/08/13 01:34:39;;;;;;;;;7.00;7.00;;;;;26.05;47.68;101715.34;5036431;28;51051;-62
2021/08/13 01:37:04;;;;;;;;;7.00;7.00;;;;;26.04;47.39;101719.22;5036630;28;50973;-62
2021/08/13 01:39:30;;;;;;;;;6.25;6.00;;;;;26.04;47.25;101713.66;5035984;28;51777;-62
2021/08/13 01:41:58;;;;;;;;;5.50;5.00;;;;;26.03;47.43;101712.81;5036375;28;51032;-62
2021/08/13 01:44:25;;;;;;;;;9.75;7.00;;;;;26.03;47.17;101718.38;5036539;28;51138;-62
2021/08/13 01:46:51;;;;;;;;;6.00;6.00;;;;;26.03;47.33;101717.53;5035185;28;51081;-62
2021/08/13 01:49:19;;;;;;;;;8.75;6.00;;;;;26.03;47.66;101723.06;5036030;28;51721;-63
2021/08/13 01:51:46;;;;;;;;;6.00;6.00;;;;;26.02;47.24;101726.94;5036007;28;51098;-62
2021/08/13 01:54:12;;;;;;;;;6.00;6.00;;;;;26.03;47.37;101723.91;5036491;28;51012;-62
2021/08/13 01:56:39;;;;;;;;;6.00;6.00;;;;;26.02;47.12;101715.84;5036549;28;51241;-62
2021/08/13 01:59:04;;;;;;;;;7.25;5.25;;;;;26.01;47.57;101722.47;5035608;28;51147;-62
2021/08/13 02:01:32;;;;;;;;;7.25;6.50;;;;;26.01;47.32;101719.69;5035869;28;51019;-62
2021/08/13 02:03:59;;;;;;;;;5.25;5.25;;;;;26.01;47.27;101719.69;5036050;28;51539;-62
2021/08/13 02:06:28;;;;;;;;;6.50;6.50;;;;;26.00;47.55;101710.53;5036250;28;51269;-62
2021/08/13 02:08:55;;;;;;;;;4.75;4.75;;;;;26.01;47.46;101711.38;5035566;28;51039;-62
2021/08/13 02:11:22;;;;;;;;;3.75;3.75;;;;;26.00;47.56;101726.34;5036015;28;51077;-62
2021/08/13 02:13:48;;;;;;;;;4.25;4.25;;;;;25.99;47.19;101721.88;5036087;28;51166;-61
2021/08/13 02:16:19;;;;;;;;;6.00;6.00;;;;;25.99;47.41;101722.72;5035866;28;50884;-62
2021/08/13 02:18:51;;;;;;;;;7.50;7.00;;;;;25.99;47.35;101728.25;5035426;28;52003;-62
2021/08/13 02:21:19;;;;;;;;;5.00;5.00;;;;;25.98;47.32;101731.28;5035678;28;51010;-62
2021/08/13 02:23:44;;;;;;;;;7.00;5.00;;;;;25.98;47.21;101728.50;5035808;28;51141;-62
2021/08/13 02:26:10;;;;;;;;;7.75;6.00;;;;;25.99;47.18;101713.53;5035916;28;51226;-62
2021/08/13 02:28:35;;;;;;;;;4.50;4.50;;;;;25.97;47.32;101722.13;5035485;28;51797;-62
2021/08/13 02:31:00;;;;;;;;;5.25;5.25;;;;;25.97;47.54;101716.56;5035495;28;50928;-63
2021/08/13 02:33:27;;;;;;;;;6.25;5.25;;;;;25.98;47.16;101711.84;5035846;28;50963;-62
2021/08/13 02:36:05;;;;;;;;;6.00;6.00;;;;;25.97;47.59;101722.13;5035963;28;51152;-62
2021/08/13 02:38:37;;;;;;;;;6.00;5.75;;;;;25.97;47.17;101730.44;5035261;28;52675;-62
2021/08/13 02:41:04;;;;;;;;;3.25;3.25;;;;;25.98;47.21;101728.50;5034120;28;51173;-62
2021/08/13 02:43:37;;;;;;;;;4.00;4.00;;;;;25.96;47.31;101719.59;5035544;28;51130;-62
2021/08/13 02:46:04;;;;;;;;;8.00;7.50;;;;;25.96;47.42;101722.34;5035556;28;51202;-62
2021/08/13 02:48:33;;;;;;;;;5.00;4.25;;;;;25.96;47.45;101714.03;5035253;28;50997;-62
2021/08/13 02:51:01;;;;;;;;;3.25;3.25;;;;;25.95;47.23;101715.97;5035251;28;51012;-63
2021/08/13 02:53:28;;;;;;;;;5.00;5.00;;;;;25.96;47.38;101719.59;5035128;28;50943;-62
2021/08/13 02:56:02;;;;;;;;;5.50;5.50;;;;;25.95;47.11;101738.16;5035848;28;50984;-63
2021/08/13 02:58:33;;;;;;;;;6.50;6.00;;;;;25.94;47.71;101730.91;5036877;28;51823;-62
2021/08/13 03:01:00;;;;;;;;;4.75;4.00;;;;;25.94;47.15;101725.34;5038987;28;50931;-62
2021/08/13 03:03:30;;;;;;;;;5.00;5.00;;;;;25.95;47.13;101720.63;5038687;28;50982;-62
2021/08/13 03:05:57;;;;;;;;;8.00;5.25;;;;;25.94;47.17;101724.50;5039268;28;51227;-62
2021/08/13 03:08:23;;;;;;;;;7.00;7.00;;;;;25.94;47.22;101732.81;5038868;28;51836;-62
2021/08/13 03:10:49;;;;;;;;;4.00;3.75;;;;;25.94;47.10;101741.16;5038914;28;51066;-62
2021/08/13 03:13:16;;;;;;;;;4.25;4.25;;;;;25.93;47.45;101733.91;5037603;28;51008;-62
2021/08/13 03:15:42;;;;;;;;;7.00;4.50;;;;;25.93;47.39;101733.91;5038643;28;51071;-63
2021/08/13 03:18:08;;;;;;;;;5.00;5.00;;;;;25.92;47.46;101744.16;5038183;28;50958;-63
2021/08/13 03:20:34;;;;;;;;;5.50;5.00;;;;;25.92;47.59;101735.00;5038615;28;51186;-63
2021/08/13 03:23:00;;;;;;;;;6.50;4.00;;;;;25.92;47.29;101732.22;5038824;28;51102;-62
2021/08/13 03:25:26;;;;;;;;;5.75;5.75;;;;;25.91;47.21;101725.81;5038491;28;51161;-62
2021/08/13 03:27:51;;;;;;;;;3.75;3.75;;;;;25.90;47.48;101727.75;5038062;28;51972;-63
2021/08/13 03:30:17;;;;;;;;;6.00;6.00;;;;;25.91;47.21;101734.16;5038425;28;51216;-62
2021/08/13 03:32:45;;;;;;;;;6.00;4.25;;;;;25.90;47.31;101738.84;5038283;28;51175;-62
2021/08/13 03:35:10;;;;;;;;;7.00;5.75;;;;;25.89;47.39;101733.56;5038886;28;51048;-63
2021/08/13 03:37:35;;;;;;;;;5.75;5.50;;;;;25.90;47.15;101729.69;5038222;28;51219;-62
2021/08/13 03:40:03;;;;;;;;;4.50;4.50;;;;;25.89;46.95;101737.16;5038555;28;50926;-63
2021/08/13 03:42:28;;;;;;;;;5.75;4.00;;;;;25.89;47.42;101737.16;5038435;28;50990;-62
2021/08/13 03:44:54;;;;;;;;;5.25;5.25;;;;;25.89;47.25;101731.63;5038623;28;50937;-62
2021/08/13 03:47:19;;;;;;;;;4.25;4.00;;;;;25.88;47.20;101727.16;5037826;28;50992;-62
2021/08/13 03:49:44;;;;;;;;;5.50;4.25;;;;;25.88;47.32;101735.47;5037823;28;51069;-62
2021/08/13 03:52:10;;;;;;;;;3.00;3.00;;;;;25.88;47.16;101731.88;5038236;28;51065;-63
2021/08/13 03:54:35;;;;;;;;;5.00;4.50;;;;;25.87;47.54;101731.03;5038418;28;51291;-62
2021/08/13 03:57:00;;;;;;;;;4.25;4.25;;;;;25.87;47.06;101736.56;5037903;28;55274;-62
2021/08/13 03:59:26;;;;;;;;;5.75;5.75;;;;;25.86;46.85;101740.44;5036628;28;51138;-63
2021/08/13 04:01:51;;;;;;;;;3.00;3.00;;;;;25.86;47.21;101736.81;5037912;28;51192;-62
2021/08/13 04:04:16;;;;;;;;;4.50;4.50;;;;;25.86;47.04;101739.59;5038039;28;51312;-63
2021/08/13 04:06:42;;;;;;;;;3.25;3.25;;;;;25.87;46.98;101741.28;5037919;28;55907;-63
2021/08/13 04:09:07;;;;;;;;;4.50;3.25;;;;;25.85;46.99;101744.28;5036992;28;51026;-62
2021/08/13 04:11:32;;;;;;;;;5.00;4.00;;;;;25.84;46.91;101748.13;5037955;28;51085;-66
2021/08/13 04:13:58;;;;;;;;;3.75;3.75;;;;;25.85;47.34;101749.84;5038123;28;51089;-63
2021/08/13 04:16:23;;;;;;;;;4.75;4.00;;;;;25.85;46.99;101754.56;5037140;28;51859;-63
2021/08/13 04:18:49;;;;;;;;;2.75;2.75;;;;;25.83;47.04;101757.53;5037843;28;51116;-62
2021/08/13 04:21:14;;;;;;;;;4.25;3.25;;;;;25.83;47.29;101763.09;5037586;28;51033;-62
2021/08/13 04:23:39;;;;;;;;;2.00;2.00;;;;;25.84;47.12;101762.00;5037763;28;51304;-68
2021/08/13 04:26:05;;;;;;;;;5.00;3.00;;;;;25.83;47.22;101759.47;5036105;28;51138;-64
2021/08/13 04:28:30;;;;;;;;;5.25;3.00;;;;;25.83;47.26;101763.09;5037462;28;51077;-62
2021/08/13 04:30:55;;;;;;;;;5.00;4.00;;;;;25.82;47.17;101761.41;5037564;28;51400;-63
2021/08/13 04:33:21;;;;;;;;;6.00;4.75;;;;;25.82;47.09;101764.19;5037761;28;51240;-62
2021/08/13 04:35:47;;;;;;;;;4.00;4.00;;;;;25.83;47.37;101762.25;5037229;28;50999;-62
2021/08/13 04:38:12;;;;;;;;;2.50;2.50;;;;;25.83;47.08;101763.09;5037504;28;51058;-62
2021/08/13 04:40:37;;;;;;;;;5.50;5.00;;;;;25.83;47.10;101759.47;5037462;28;50988;-62
2021/08/13 04:43:03;;;;;;;;;4.25;4.25;;;;;25.82;47.01;101758.63;5037713;28;51031;-62
2021/08/13 04:45:28;;;;;;;;;5.00;5.00;;;;;25.82;47.01;101766.94;5037518;28;50939;-62
2021/08/13 04:47:54;;;;;;;;;4.00;4.00;;;;;25.80;47.26;101763.56;5037270;28;51253;-62
2021/08/13 04:50:20;;;;;;;;;2.75;2.75;;;;;25.81;47.00;101767.19;5037705;28;51166;-62
2021/08/13 04:52:50;;;;;;;;;3.25;3.25;;;;;25.81;46.81;101767.19;5037348;28;51383;-61
2021/08/13 04:55:21;;;;;;;;;5.00;3.25;;;;;25.81;47.26;101772.75;5037419;28;51397;-62
2021/08/13 04:57:46;;;;;;;;;4.75;3.75;;;;;25.80;46.87;101769.13;5037110;28;51165;-62
2021/08/13 05:00:13;;;;;;;;;2.75;2.75;;;;;25.80;46.94;101773.81;5037489;28;51064;-63
2021/08/13 05:02:38;;;;;;;;;5.00;4.50;;;;;25.79;47.16;101778.53;5052567;28;51391;-62
2021/08/13 05:05:04;;;;;;;;;5.25;3.75;;;;;25.79;47.07;101789.63;5036766;28;51941;-62
2021/08/13 05:07:30;;;;;;;;;5.00;3.00;;;;;25.80;46.97;101784.94;5037253;28;51791;-62
2021/08/13 05:09:56;;;;;;;;;4.00;4.00;;;;;25.79;47.02;101786.84;5037017;28;50975;-62
2021/08/13 05:12:21;;;;;;;;;2.50;2.50;;;;;25.79;46.71;101789.63;5037308;28;51277;-63
2021/08/13 05:14:47;;;;;;;;;2.00;2.00;;;;;25.78;46.88;101790.72;5036793;28;51937;-62
2021/08/13 05:17:12;;;;;;;;;5.00;5.00;;;;;25.78;46.79;101804.59;5036471;28;51059;-63
2021/08/13 05:19:37;;;;;;;;;2.00;2.00;;;;;25.78;47.11;101793.50;5036637;28;51106;-62
2021/08/13 05:22:03;;;;;;;;;4.25;4.00;;;;;25.79;47.07;101806.28;5036561;28;51240;-62
2021/08/13 05:24:29;;;;;;;;;4.00;4.00;;;;;25.78;46.79;101801.81;5036723;28;52063;-62
2021/08/13 05:26:54;;;;;;;;;3.50;3.00;;;;;25.79;47.24;101806.28;5036507;28;51074;-62
2021/08/13 05:29:19;;;;;;;;;3.50;3.00;;;;;25.79;47.27;101817.38;5036494;28;51184;-62
2021/08/13 05:31:45;;;;;;;;;5.50;3.25;;;;;25.78;46.90;101817.63;5036558;28;51358;-62
2021/08/13 05:34:10;;;;;;;;;3.00;3.00;;;;;25.78;46.97;101826.78;5036327;28;51723;-63
2021/08/13 05:36:35;;;;;;;;;3.25;3.25;;;;;25.78;47.12;101825.94;5035200;28;51026;-62
2021/08/13 05:39:01;;;;;;;;;3.00;2.50;;;;;25.78;47.09;101834.28;5036361;28;51291;-62
2021/08/13 05:41:26;;;;;;;;;3.00;3.00;;;;;25.78;46.79;101837.91;5036326;28;51006;-62
2021/08/13 05:43:51;;;;;;;;;3.00;2.00;;;;;25.77;47.24;101840.91;5036292;28;51043;-62
2021/08/13 05:46:17;;;;;;;;;3.00;3.00;;;;;25.79;46.85;101835.97;5036118;28;51101;-63
2021/08/13 05:48:42;;;;;;;;;4.50;2.75;;;;;25.77;46.96;101822.34;5035914;28;51164;-63
2021/08/13 05:51:07;;;;;;;;;4.00;2.00;;;;;25.77;46.74;101830.66;5036453;28;51391;-62
2021/08/13 05:53:33;;;;;;;;;2.50;2.50;;;;;25.77;46.91;101827.88;5035805;28;51744;-63
2021/08/13 05:55:58;;;;;;;;;3.00;3.00;;;;;25.76;46.97;101831.75;5036307;28;51087;-62
2021/08/13 05:58:23;;;;;;;;;3.00;2.00;;;;;25.77;46.92;101838.97;5035822;28;51289;-62
2021/08/13 06:00:49;;;;;;;;;4.00;4.00;;;;;25.76;46.89;101839.22;5036139;28;51042;-62
2021/08/13 06:03:14;;;;;;;;;3.25;2.00;;;;;25.77;46.75;101843.69;5035766;28;51141;-62
2021/08/13 06:05:39;;;;;;;;;3.50;2.25;;;;;25.77;46.92;101850.09;5036047;28;51121;-62
2021/08/13 06:08:05;;;;;;;;;3.50;3.50;;;;;25.76;47.13;101851.16;5035891;28;51141;-62
2021/08/13 06:10:30;;;;;;;;;3.00;3.00;;;;;25.77;46.77;101838.13;5036206;28;51124;-62
2021/08/13 06:12:55;;;;;;;;;2.00;2.00;;;;;25.76;46.98;101840.06;5035944;28;51616;-63
2021/08/13 06:15:21;;;;;;;;;3.75;3.75;;;;;25.76;46.80;101830.91;5036167;28;50887;-62
2021/08/13 06:17:47;;;;;;;;;3.75;3.50;;;;;25.77;46.98;101829.81;5034293;28;50916;-62
2021/08/13 06:20:16;;;;;;;;;2.00;2.00;;;;;25.76;46.88;101836.44;5035939;28;51268;-63
2021/08/13 06:22:42;;;;;;;;;4.00;2.50;;;;;25.75;46.67;101838.38;5035569;28;52006;-62
2021/08/13 06:25:08;;;;;;;;;4.25;2.50;;;;;25.77;47.06;101846.47;5035908;28;51009;-62
2021/08/13 06:27:34;;;;;;;;;2.75;2.75;;;;;25.77;46.97;101852.00;5035476;28;50955;-62
2021/08/13 06:30:00;;;;;;;;;3.00;3.00;;;;;25.77;47.01;101858.41;5035951;28;51288;-62
2021/08/13 06:32:25;;;;;;;;;2.75;1.75;;;;;25.77;46.87;101858.41;5037101;28;51886;-61
2021/08/13 06:34:50;;;;;;;;;3.25;3.25;;;;;25.78;46.57;101860.09;5042247;28;51003;-61
2021/08/13 06:37:16;;;;;;;;;3.00;3.00;;;;;25.78;46.96;101860.09;5042460;28;50943;-62
2021/08/13 06:39:41;;;;;;;;;3.75;3.75;;;;;25.80;46.74;101866.25;5042192;28;51149;-61
2021/08/13 06:42:07;;;;;;;;;4.25;2.00;;;;;25.81;46.87;101876.28;5042052;28;50970;-62
2021/08/13 06:44:32;;;;;;;;;2.00;2.00;;;;;25.81;46.82;101876.28;5042303;28;50939;-62
2021/08/13 06:46:57;;;;;;;;;3.00;3.00;;;;;25.82;46.77;101877.97;5041999;28;51097;-61
2021/08/13 06:49:23;;;;;;;;;2.25;2.00;;;;;25.83;46.55;101874.09;5042192;28;51782;-62
2021/08/13 06:51:48;;;;;;;;;1.25;1.25;;;;;25.85;46.83;101879.47;5041729;28;51040;-61
2021/08/13 06:54:13;;;;;;;;;2.75;2.75;;;;;25.87;46.73;101877.28;5042246;28;50880;-62
2021/08/13 06:56:39;;;;;;;;;2.00;2.00;;;;;25.87;46.80;101871.72;5042226;28;51410;-62
2021/08/13 06:59:04;;;;;;;;;2.00;2.00;;;;;25.90;46.88;101883.19;5041882;28;51123;-62
2021/08/13 07:01:30;;;;;;;;;2.75;2.75;;;;;25.93;46.57;101872.72;5041712;28;51093;-62
2021/08/13 07:03:55;;;;;;;;;2.75;2.75;;;;;25.95;46.62;101878.88;5041828;28;51016;-62
2021/08/13 07:06:20;;;;;;;;;1.00;1.00;;;;;25.97;46.59;101874.81;5042035;28;50979;-62
2021/08/13 07:08:45;;;;;;;;;3.00;2.00;;;;;26.00;46.25;101879.03;5042041;28;51137;-62
2021/08/13 07:11:11;;;;;;;;;1.75;1.75;;;;;26.02;46.03;101886.03;5041534;28;53225;-62
2021/08/13 07:13:36;;;;;;;;;4.75;4.75;;;;;26.05;46.51;101898.59;5041774;28;51134;-61
2021/08/13 07:16:02;;;;;;;;;0.75;0.50;;;;;26.08;46.24;101898.16;5041543;28;51041;-63
2021/08/13 07:18:27;;;;;;;;;3.25;3.25;;;;;26.12;46.17;101904.91;5040114;28;51050;-62
2021/08/13 07:20:53;;;;;;;;;1.00;1.00;;;;;26.14;45.82;101908.28;5041162;28;51583;-63
2021/08/13 07:23:18;;;;;;;;;2.00;2.00;;;;;26.16;45.70;101895.03;5040246;28;51142;-62
2021/08/13 07:25:43;;;;;;;;;6.75;4.00;;;;;26.22;45.72;101910.75;5041692;28;51479;-64
2021/08/13 07:28:09;;;;;;;;;5.50;3.75;;;;;26.25;45.81;101913.03;5040422;28;51153;-62
2021/08/13 07:30:34;;;;;;;;;2.25;2.25;;;;;26.28;45.61;101909.81;5040022;28;52596;-62
2021/08/13 07:33:00;;;;;;;;;2.25;2.25;;;;;26.30;45.57;101904.88;5041621;28;51360;-61
2021/08/13 07:35:25;;;;;;;;;4.00;3.00;;;;;26.33;45.92;101909.94;5041608;28;51108;-64
2021/08/13 07:37:50;;;;;;;;;2.00;2.00;;;;;26.35;45.78;101921.66;5041853;28;51280;-62
2021/08/13 07:40:17;;;;;;;;;2.75;2.25;;;;;26.37;45.70;101921.47;5039754;28;52303;-62
2021/08/13 07:42:42;;;;;;;;;3.25;2.00;;;;;26.38;45.91;101935.13;5041473;28;51273;-62
2021/08/13 07:45:09;;;;;;;;;3.00;3.00;;;;;26.40;45.63;101929.34;5038791;28;51169;-63
2021/08/13 07:47:34;;;;;;;;;1.25;1.25;;;;;26.41;45.22;101931.03;5038323;28;50965;-61
2021/08/13 07:50:00;;;;;;;;;5.50;4.00;;;;;26.42;45.49;101933.56;5037441;28;51038;-62
2021/08/13 07:52:26;;;;;;;;;3.50;3.00;;;;;26.44;45.64;101939.72;5037661;28;51105;-65
2021/08/13 07:54:51;;;;;;;;;2.50;2.50;;;;;26.47;45.83;101946.75;5038257;28;51253;-63
2021/08/13 07:57:19;;;;;;;;;1.75;1.75;;;;;26.49;45.11;101938.19;5038325;28;51021;-62
2021/08/13 07:59:44;;;;;;;;;1.50;1.50;;;;;26.51;45.45;101944.34;5037482;28;52143;-63
2021/08/13 08:02:10;;;;;;;;;2.00;2.00;;;;;26.51;45.53;101947.97;5037434;28;50963;-63
2021/08/13 08:04:37;;;;;;;;;3.25;2.00;;;;;26.54;45.23;101952.19;5037796;28;51058;-62
2021/08/13 08:07:03;;;;;;;;;3.00;3.00;;;;;26.55;45.24;101953.91;5038060;28;50971;-62
2021/08/13 08:09:28;;;;;;;;;2.00;2.00;;;;;26.57;45.04;101957.28;5036074;28;53577;-62
2021/08/13 08:11:53;;;;;;;;;3.00;3.00;;;;;26.57;45.46;101963.69;5038002;28;50936;-61
2021/08/13 08:14:19;;;;;;;;;1.75;1.75;;;;;26.59;45.04;101969.88;5036379;28;50917;-62
2021/08/13 08:16:45;;;;;;;;;2.25;1.50;;;;;26.59;45.17;101986.53;5037478;28;50962;-63
2021/08/13 08:19:11;;;;;;;;;2.50;2.50;;;;;26.60;45.47;101982.69;5036946;28;52819;-63
2021/08/13 08:21:37;;;;;;;;;3.00;3.00;;;;;26.63;45.34;101975.78;5037815;28;51050;-63
2021/08/13 08:24:03;;;;;;;;;2.00;2.00;;;;;26.63;45.47;101982.19;5037543;28;51152;-63
2021/08/13 08:26:28;;;;;;;;;4.25;3.00;;;;;26.65;45.21;101984.75;5036199;28;51058;-62
2021/08/13 08:28:53;;;;;;;;;2.75;2.00;;;;;26.67;45.43;101968.66;5037183;28;53151;-63
2021/08/13 08:31:19;;;;;;;;;2.00;1.75;;;;;26.68;45.42;101975.94;5037389;28;50974;-61
2021/08/13 08:33:44;;;;;;;;;2.00;1.00;;;;;26.68;45.40;101976.78;5037233;28;51031;-62
2021/08/13 08:36:10;;;;;;;;;2.00;2.00;;;;;26.69;45.40;101977.63;5037587;28;51097;-61
2021/08/13 08:38:35;;;;;;;;;2.00;2.00;;;;;26.70;44.81;101980.19;5036815;28;51022;-61
2021/08/13 08:41:06;;;;;;;;;2.25;2.00;;;;;26.71;44.90;101981.03;5037205;28;51039;-62
2021/08/13 08:43:32;;;;;;;;;3.50;2.50;;;;;26.71;45.39;101984.66;5037218;28;51094;-62
2021/08/13 08:45:59;;;;;;;;;3.75;2.75;;;;;26.73;45.07;101985.25;5037341;28;51051;-62
2021/08/13 08:48:27;;;;;;;;;3.50;1.75;;;;;26.74;45.17;101983.31;5036342;28;51013;-63
2021/08/13 08:50:53;;;;;;;;;3.00;3.00;;;;;26.76;44.62;101986.69;5036927;28;50893;-62
2021/08/13 08:53:24;;;;;;;;;3.00;3.00;;;;;26.76;45.33;101995.03;5037003;28;51139;-62
2021/08/13 08:55:51;;;;;;;;;2.50;2.00;;;;;26.77;44.84;101983.69;5036841;28;51326;-63
2021/08/13 08:58:18;;;;;;;;;3.00;3.00;;;;;26.77;44.66;101980.91;5036655;28;51887;-62
2021/08/13 09:00:45;;;;;;;;;3.25;3.25;;;;;26.79;45.15;101982.63;5036403;28;51047;-61
2021/08/13 09:03:11;;;;;;;;;1.00;1.00;;;;;26.80;44.79;101971.25;5036718;28;51070;-62
2021/08/13 09:05:36;;;;;;;;;3.00;2.50;;;;;26.81;45.32;101972.94;5036588;28;51077;-61
2021/08/13 09:08:02;;;;;;;;;2.00;1.00;;;;;26.82;44.76;101971.88;5036580;28;51354;-61
2021/08/13 09:10:27;;;;;;;;;2.00;2.00;;;;;26.84;44.62;101964.13;5036646;28;51158;-61
2021/08/13 09:12:53;;;;;;;;;1.25;1.25;;;;;26.84;44.54;101966.91;5036765;28;51071;-61
2021/08/13 09:15:32;;;;;;;;;2.50;2.50;;;;;26.85;44.69;101964.97;5036470;28;51042;-61
2021/08/13 09:18:21;;;;;;;;;3.00;3.00;;;;;26.85;45.01;101968.59;5035870;28;51811;-62
2021/08/13 09:20:58;;;;;;;;;3.00;3.00;;;;;26.85;44.61;101965.81;5036270;28;51339;-63
2021/08/13 09:23:29;;;;;;;;;2.75;2.00;;;;;26.87;44.71;101963.63;5036835;28;51039;-62
2021/08/13 09:25:57;;;;;;;;;4.50;2.25;;;;;26.87;44.57;101980.31;5036451;28;50968;-62
2021/08/13 09:29:00;;;;;;;;;2.75;2.75;;;;;26.88;45.06;101976.44;5035950;28;51069;-62
2021/08/13 09:31:31;;;;;;;;;2.00;1.00;;;;;26.89;44.65;101971.78;5036509;28;50943;-62
2021/08/13 09:34:10;;;;;;;;;2.25;1.25;;;;;26.90;44.75;101974.31;5036447;28;50963;-62
2021/08/13 09:36:38;;;;;;;;;1.75;1.75;;;;;26.92;44.54;101976.84;5036881;28;51170;-62
2021/08/13 09:39:06;;;;;;;;;3.75;3.00;;;;;26.92;44.72;101977.69;5035877;28;51827;-62
2021/08/13 09:41:46;;;;;;;;;2.25;2.25;;;;;26.93;44.62;101975.75;5036084;28;51325;-62
2021/08/13 09:44:12;;;;;;;;;1.00;1.00;;;;;26.94;44.48;101967.16;5036109;28;51143;-62
2021/08/13 09:47:00;;;;;;;;;2.00;2.00;;;;;26.94;45.04;101969.94;5036080;28;51089;-62
2021/08/13 09:49:28;;;;;;;;;3.50;3.50;;;;;26.94;44.87;101958.84;5035335;28;51779;-62
2021/08/13 09:51:54;;;;;;;;;4.00;4.00;;;;;26.95;44.39;101966.06;5035786;28;50982;-62
2021/08/13 09:54:26;;;;;;;;;2.50;2.50;;;;;26.95;44.26;101960.53;5036038;28;51075;-61
2021/08/13 09:56:51;;;;;;;;;2.25;2.25;;;;;26.96;44.93;101953.88;5035909;28;51276;-61
2021/08/13 09:59:20;;;;;;;;;3.00;3.00;;;;;26.96;44.40;101953.88;5035305;28;55507;-64
2021/08/13 10:01:49;;;;;;;;;2.25;2.00;;;;;26.97;44.80;101958.34;5035885;28;50994;-62
2021/08/13 10:04:17;;;;;;;;;1.75;1.75;;;;;26.98;44.40;101953.63;5035480;28;51167;-62
2021/08/13 10:06:44;;;;;;;;;2.00;1.75;;;;;26.98;44.44;101965.59;5035411;28;51102;-63
2021/08/13 10:09:22;;;;;;;;;4.25;4.25;;;;;26.99;44.85;101961.75;5034956;28;51157;-61
2021/08/13 10:12:14;;;;;;;;;3.75;2.75;;;;;27.00;45.01;101960.66;5035707;28;51468;-61
2021/08/13 10:14:42;;;;;;;;;2.50;2.50;;;;;27.00;44.74;101960.66;5033046;28;51299;-61
2021/08/13 10:17:14;;;;;;;;;2.25;2.25;;;;;27.00;44.55;101952.31;5035836;28;51008;-62
2021/08/13 10:19:41;;;;;;;;;2.00;1.25;;;;;27.01;44.29;101956.78;5035278;28;51700;-62
2021/08/13 10:22:07;;;;;;;;;1.25;1.25;;;;;27.00;44.89;101952.31;5035615;28;51194;-62
2021/08/13 10:24:34;;;;;;;;;4.00;3.00;;;;;27.02;44.83;101952.09;5035171;28;51077;-62
2021/08/13 10:27:01;;;;;;;;;5.00;3.00;;;;;27.01;44.64;101962.34;5035526;28;51309;-61
2021/08/13 10:29:27;;;;;;;;;4.00;2.25;;;;;27.02;44.07;101952.97;5034948;28;51836;-61
2021/08/13 10:31:55;;;;;;;;;3.00;3.00;;;;;27.02;44.15;101955.75;5033522;28;51133;-61
2021/08/13 10:34:20;;;;;;;;;3.75;2.50;;;;;27.04;44.25;101952.72;5035227;28;51072;-61
2021/08/13 10:36:47;;;;;;;;;4.25;4.00;;;;;27.04;44.77;101950.78;5035560;28;50871;-61
2021/08/13 10:39:16;;;;;;;;;3.75;2.00;;;;;27.04;44.71;101952.72;5034627;28;52140;-62
2021/08/13 10:41:44;;;;;;;;;4.00;4.00;;;;;27.04;44.66;101956.34;5035158;28;51368;-62
2021/08/13 10:44:13;;;;;;;;;3.00;3.00;;;;;27.03;44.75;101951.88;5035278;28;50987;-62
2021/08/13 10:46:40;;;;;;;;;4.50;3.25;;;;;27.03;44.75;101954.66;5034855;28;51040;-61
2021/08/13 10:49:09;;;;;;;;;2.75;2.75;;;;;27.03;44.31;101954.66;5033234;28;51912;-63
2021/08/13 10:51:34;;;;;;;;;1.00;1.00;;;;;27.03;44.45;101949.09;5034556;28;51151;-61
2021/08/13 10:54:08;;;;;;;;;3.00;3.00;;;;;27.04;44.13;101952.72;5034216;28;51176;-61
2021/08/13 10:56:48;;;;;;;;;2.00;2.00;;;;;27.03;44.11;101954.66;5034362;28;50996;-61
2021/08/13 10:59:39;;;;;;;;;3.50;3.50;;;;;27.04;44.89;101950.78;5033484;28;52085;-60
2021/08/13 11:02:15;;;;;;;;;3.50;2.75;;;;;27.04;44.76;101945.22;5033913;28;51343;-61
2021/08/13 11:04:42;;;;;;;;;3.75;2.75;;;;;27.05;44.83;101943.28;5034401;28;51022;-61
2021/08/13 11:07:07;;;;;;;;;2.75;2.50;;;;;27.04;44.53;101956.34;5034673;28;51136;-61
2021/08/13 11:09:34;;;;;;;;;2.75;2.75;;;;;27.04;44.42;101950.78;5033458;28;51382;-62
2021/08/13 11:12:04;;;;;;;;;3.50;3.00;;;;;27.03;44.24;101946.31;5034370;28;51487;-61
2021/08/13 11:14:31;;;;;;;;;3.00;3.00;;;;;27.03;44.72;101935.19;5033975;28;51120;-61
2021/08/13 11:16:57;;;;;;;;;4.00;4.00;;;;;27.02;44.41;101941.84;5034553;28;51299;-61
2021/08/13 11:19:23;;;;;;;;;3.25;2.00;;;;;27.03;44.97;101946.31;5035686;28;52054;-61
2021/08/13 11:21:51;;;;;;;;;5.00;4.50;;;;;27.04;44.36;101949.94;5037799;28;51156;-61
2021/08/13 11:24:19;;;;;;;;;5.50;2.50;;;;;27.03;44.49;101940.75;5038357;28;51228;-61